Map

Track Data

SID SEASON NUMBER BASIN SUBBASIN NAME ISO_TIME NATURE LAT LON WMO_WIND WMO_PRES WMO_AGENCY TRACK_TYPE DIST2LAND LANDFALL IFLAG USA_AGENCY USA_ATCF_ID USA_LAT USA_LON USA_RECORD USA_STATUS USA_WIND USA_PRES USA_SSHS USA_R34_NE USA_R34_SE USA_R34_SW USA_R34_NW USA_R50_NE USA_R50_SE USA_R50_SW USA_R50_NW USA_R64_NE USA_R64_SE USA_R64_SW USA_R64_NW USA_POCI USA_ROCI USA_RMW USA_EYE TOKYO_LAT TOKYO_LON TOKYO_GRADE TOKYO_WIND TOKYO_PRES TOKYO_R50_DIR TOKYO_R50_LONG TOKYO_R50_SHORT TOKYO_R30_DIR TOKYO_R30_LONG TOKYO_R30_SHORT TOKYO_LAND CMA_LAT CMA_LON CMA_CAT CMA_WIND CMA_PRES HKO_LAT HKO_LON HKO_CAT HKO_WIND HKO_PRES NEWDELHI_LAT NEWDELHI_LON NEWDELHI_GRADE NEWDELHI_WIND NEWDELHI_PRES NEWDELHI_CI NEWDELHI_DP NEWDELHI_POCI REUNION_LAT REUNION_LON REUNION_TYPE REUNION_WIND REUNION_PRES REUNION_TNUM REUNION_CI REUNION_RMW REUNION_R34_NE REUNION_R34_SE REUNION_R34_SW REUNION_R34_NW REUNION_R50_NE REUNION_R50_SE REUNION_R50_SW REUNION_R50_NW REUNION_R64_NE REUNION_R64_SE REUNION_R64_SW REUNION_R64_NW BOM_LAT BOM_LON BOM_TYPE BOM_WIND BOM_PRES BOM_TNUM BOM_CI BOM_RMW BOM_R34_NE BOM_R34_SE BOM_R34_SW BOM_R34_NW BOM_R50_NE BOM_R50_SE BOM_R50_SW BOM_R50_NW BOM_R64_NE BOM_R64_SE BOM_R64_SW BOM_R64_NW BOM_ROCI BOM_POCI BOM_EYE BOM_POS_METHOD BOM_PRES_METHOD NADI_LAT NADI_LON NADI_CAT NADI_WIND NADI_PRES WELLINGTON_LAT WELLINGTON_LON WELLINGTON_WIND WELLINGTON_PRES DS824_LAT DS824_LON DS824_STAGE DS824_WIND DS824_PRES TD9636_LAT TD9636_LON TD9636_STAGE TD9636_WIND TD9636_PRES TD9635_LAT TD9635_LON TD9635_WIND TD9635_PRES TD9635_ROCI NEUMANN_LAT NEUMANN_LON NEUMANN_CLASS NEUMANN_WIND NEUMANN_PRES MLC_LAT MLC_LON MLC_CLASS MLC_WIND MLC_PRES USA_GUST BOM_GUST BOM_GUST_PER REUNION_GUST REUNION_GUST_PER USA_SEAHGT USA_SEARAD_NE USA_SEARAD_SE USA_SEARAD_SW USA_SEARAD_NW STORM_SPEED STORM_DIR
1986156N26284 1986 52 NA NA ANDREW 1986-06-05 00:00:00 SS 26.2000 -75.8000 30 1007 hurdat_atl main 252 252 O_____________ hurdat_atl AL011986 26.2000 -75.8000 SD 30 1007 -2 12 352
1986156N26284 1986 52 NA NA ANDREW 1986-06-05 03:00:00 SS 26.8125 -75.8849 main 282 282 P_____________ AL011986 26.8125 -75.8849 SD 30 1006 -2 12 352
1986156N26284 1986 52 NA NA ANDREW 1986-06-05 06:00:00 SS 27.4000 -76.0000 30 1006 hurdat_atl main 325 325 O_____________ hurdat_atl AL011986 27.4000 -76.0000 SD 30 1006 -2 12 347
1986156N26284 1986 52 NA NA ANDREW 1986-06-05 09:00:00 SS 27.9374 -76.1701 main 360 360 P_____________ AL011986 27.9374 -76.1701 SD 30 1005 -2 11 340
1986156N26284 1986 52 NA NA ANDREW 1986-06-05 12:00:00 SS 28.4000 -76.4000 30 1005 hurdat_atl main 396 371 O_____________ hurdat_atl AL011986 28.4000 -76.4000 SD 30 1005 -2 10 331
1986156N26284 1986 52 NA NA ANDREW 1986-06-05 15:00:00 SS 28.7801 -76.6926 main 371 345 P_____________ AL011986 28.7801 -76.6926 SD 30 1004 -2 9 323
1986156N26284 1986 52 NA NA ANDREW 1986-06-05 18:00:00 SS 29.1000 -77.0000 30 1003 hurdat_atl main 347 326 O_____________ hurdat_atl AL011986 29.1000 -77.0000 SD 30 1003 -2 8 321
1986156N26284 1986 52 NA NA ANDREW 1986-06-05 21:00:00 SS 29.4150 -77.2726 main 326 316 P_____________ AL011986 29.4150 -77.2726 SD 32 1002 -2 7 324
1986156N26284 1986 52 NA NA ANDREW 1986-06-06 00:00:00 TS 29.7000 -77.5000 35 1002 hurdat_atl main 320 313 O_____________ hurdat_atl AL011986 29.7000 -77.5000 TS 35 1002 0 6 327
1986156N26284 1986 52 NA NA ANDREW 1986-06-06 03:00:00 TS 29.9574 -77.6727 main 318 316 P_____________ AL011986 29.9574 -77.6727 TS 37 1002 0 6 332
1986156N26284 1986 52 NA NA ANDREW 1986-06-06 06:00:00 TS 30.2000 -77.8000 40 1003 hurdat_atl main 322 315 O_____________ hurdat_atl AL011986 30.2000 -77.8000 TS 40 1003 0 5 335
1986156N26284 1986 52 NA NA ANDREW 1986-06-06 09:00:00 TS 30.4350 -77.9299 main 315 283 P_____________ AL011986 30.4350 -77.9299 TS 42 1004 0 5 341
1986156N26284 1986 52 NA NA ANDREW 1986-06-06 12:00:00 TS 30.7000 -78.0000 45 1005 hurdat_atl main 283 259 O_____________ hurdat_atl AL011986 30.7000 -78.0000 TS 45 1005 0 6 356
1986156N26284 1986 52 NA NA ANDREW 1986-06-06 15:00:00 TS 31.0500 -77.9727 main 249 227 P_____________ AL011986 31.0500 -77.9727 TS 45 1004 0 7 7
1986156N26284 1986 52 NA NA ANDREW 1986-06-06 18:00:00 TS 31.4000 -77.9000 45 1004 hurdat_atl main 227 210 O_____________ hurdat_atl AL011986 31.4000 -77.9000 TS 45 1004 0 6 5
1986156N26284 1986 52 NA NA ANDREW 1986-06-06 21:00:00 TS 31.6347 -77.9091 main 210 193 P_____________ AL011986 31.6347 -77.9091 TS 45 1003 0 5 10
1986156N26284 1986 52 NA NA ANDREW 1986-06-07 00:00:00 TS 31.9000 -77.8000 45 1003 hurdat_atl main 193 184 O_____________ hurdat_atl AL011986 31.9000 -77.8000 TS 45 1003 0 8 31
1986156N26284 1986 52 NA NA ANDREW 1986-06-07 03:00:00 TS 32.3278 -77.4107 main 186 159 P_____________ AL011986 32.3278 -77.4107 TS 45 1002 0 12 40
1986156N26284 1986 52 NA NA ANDREW 1986-06-07 06:00:00 TS 32.8000 -76.9000 45 1001 hurdat_atl main 159 156 O_____________ hurdat_atl AL011986 32.8000 -76.9000 TS 45 1001 0 12 42
1986156N26284 1986 52 NA NA ANDREW 1986-06-07 09:00:00 TS 33.2147 -76.4570 main 159 128 P_____________ AL011986 33.2147 -76.4570 TS 45 1000 0 11 43
1986156N26284 1986 52 NA NA ANDREW 1986-06-07 12:00:00 TS 33.6000 -76.0000 45 999 hurdat_atl main 130 119 O_____________ hurdat_atl AL011986 33.6000 -76.0000 TS 45 999 0 11 47
1986156N26284 1986 52 NA NA ANDREW 1986-06-07 15:00:00 TS 33.9423 -75.5142 main 127 120 P_____________ AL011986 33.9423 -75.5142 TS 45 999 0 11 50
1986156N26284 1986 52 NA NA ANDREW 1986-06-07 18:00:00 TS 34.3000 -75.0000 45 1000 hurdat_atl main 136 136 O_____________ hurdat_atl AL011986 34.3000 -75.0000 TS 45 1000 0 12 48
1986156N26284 1986 52 NA NA ANDREW 1986-06-07 21:00:00 TS 34.7198 -74.4643 main 148 147 P_____________ AL011986 34.7198 -74.4643 TS 45 1001 0 13 45
1986156N26284 1986 52 NA NA ANDREW 1986-06-08 00:00:00 TS 35.2000 -73.9000 45 1002 hurdat_atl main 159 159 O_____________ hurdat_atl AL011986 35.2000 -73.9000 TS 45 1002 0 13 43
1986156N26284 1986 52 NA NA ANDREW 1986-06-08 03:00:00 TS 35.6967 -73.3427 main 198 197 P_____________ AL011986 35.6967 -73.3427 TS 45 1002 0 15 42
1986156N26284 1986 52 NA NA ANDREW 1986-06-08 06:00:00 TS 36.3000 -72.7000 45 1002 hurdat_atl main 257 257 O_____________ hurdat_atl AL011986 36.3000 -72.7000 TS 45 1002 0 18 40
1986156N26284 1986 52 NA NA ANDREW 1986-06-08 09:00:00 TS 37.0545 -71.9164 main 310 310 P_____________ AL011986 37.0545 -71.9164 TS 42 1002 0 21 40
1986156N26284 1986 52 NA NA ANDREW 1986-06-08 12:00:00 TS 37.9000 -71.0000 40 1002 hurdat_atl main 336 315 O_____________ hurdat_atl AL011986 37.9000 -71.0000 TS 40 1002 0 23 42
1986156N26284 1986 52 NA NA ANDREW 1986-06-08 15:00:00 TS 38.7545 -69.9825 main 306 248 P_____________ AL011986 38.7545 -69.9825 TS 37 1001 0 24 44
1986156N26284 1986 52 NA NA ANDREW 1986-06-08 18:00:00 TS 39.6000 -68.9000 35 1001 hurdat_atl main 251 O_____________ hurdat_atl AL011986 39.6000 -68.9000 TS 35 1001 0 24 45

About IBTrACS Database

This database is a web-friendly format of International Best Track Archive for Climate Stewardship (IBTrACS), a global best track data archive curated by NOAA dating back to 1842.

Updated: 2021-10-25